Terminal Aerodrome Forecast
Issued by NWS Cleveland, OH

Home | Current Version | Previous Version | Graphics & Text | Print | Product List | Glossary On
Versions: 1 2 3 4 5 6 7 8 9 10
051
FTUS41 KCLE 221136
TAFMFD
TAF
KMFD 221136Z 2212/2312 02010KT P6SM BKN020
      TEMPO 2212/2214 SCT020
     FM221400 02012G18KT P6SM SCT025 BKN150=

USA.gov is the U.S. government's official web portal to all federal, state and local government web resources and services.